Time;durP1;ratioP1;P1;durP2;ratioP2;P2;SDS_P1;SDS_P2;PMS_P1;PMS_P2;Temp;Humidity;BMP_temperature;BMP_pressure;BME280_temperature;BME280_humidity;BME280_pressure;Samples;Min_cycle;Max_cycle;Signal;HPM_P1;HPM_P2
2023/04/08 00:01:04;;;;;;;24.42;12.02;;;6.20;99.90;;;;;;5050718;28;20049;-48
2023/04/08 00:03:30;;;;;;;17.92;10.82;;;6.10;99.90;;;;;;5048986;28;20029;-47
2023/04/08 00:05:55;;;;;;;20.45;10.82;;;6.10;99.90;;;;;;5050513;28;20062;-46
2023/04/08 00:08:21;;;;;;;17.60;11.45;;;6.10;99.90;;;;;;5048036;28;20074;-46
2023/04/08 00:10:46;;;;;;;18.05;11.15;;;6.20;99.90;;;;;;5050171;28;20025;-46
2023/04/08 00:13:12;;;;;;;21.38;12.43;;;6.20;99.90;;;;;;5050241;28;20013;-46
2023/04/08 00:15:38;;;;;;;21.08;11.65;;;6.20;99.90;;;;;;5049771;28;20398;-48
2023/04/08 00:18:03;;;;;;;18.42;11.70;;;6.20;99.90;;;;;;5049996;28;20094;-48
2023/04/08 00:20:29;;;;;;;17.95;12.30;;;6.20;99.90;;;;;;5050419;28;20066;-46
2023/04/08 00:22:54;;;;;;;18.58;12.20;;;6.20;99.90;;;;;;5050261;28;20026;-46
2023/04/08 00:25:20;;;;;;;16.00;10.07;;;6.30;99.90;;;;;;5048935;28;20017;-46
2023/04/08 00:27:45;;;;;;;18.25;11.02;;;6.30;99.90;;;;;;5049458;28;20048;-46
2023/04/08 00:30:11;;;;;;;17.75;11.82;;;6.20;99.90;;;;;;5049567;28;20621;-46
2023/04/08 00:32:37;;;;;;;17.77;11.57;;;6.20;99.90;;;;;;5049849;28;20358;-46
2023/04/08 00:35:03;;;;;;;20.65;12.40;;;6.20;99.90;;;;;;5048510;28;20020;-46
2023/04/08 00:37:28;;;;;;;20.25;11.75;;;6.20;99.90;;;;;;5049883;28;20017;-46
2023/04/08 00:39:54;;;;;;;18.13;11.85;;;6.20;99.90;;;;;;5064732;28;20497;-47
2023/04/08 00:42:22;;;;;;;21.35;13.02;;;6.20;99.90;;;;;;5049472;28;20021;-48
2023/04/08 00:44:48;;;;;;;19.42;12.35;;;6.20;99.90;;;;;;5049339;28;20036;-48
2023/04/08 00:47:15;;;;;;;20.27;12.65;;;6.20;99.90;;;;;;5049790;28;20024;-47
2023/04/08 00:49:41;;;;;;;20.75;12.80;;;6.10;99.90;;;;;;5049300;28;20688;-46
2023/04/08 00:52:06;;;;;;;15.25;10.50;;;6.20;99.90;;;;;;5049677;28;20045;-46
2023/04/08 00:54:32;;;;;;;20.65;12.43;;;6.20;99.90;;;;;;5048220;28;20439;-47
2023/04/08 00:57:01;;;;;;;16.98;11.63;;;6.10;99.90;;;;;;5064128;28;20433;-47
2023/04/08 00:59:28;;;;;;;20.35;12.15;;;6.10;99.90;;;;;;5048944;28;20021;-47
2023/04/08 01:02:05;;;;;;;21.63;12.32;;;6.10;99.90;;;;;;5048041;28;20125;-46
2023/04/08 01:04:53;;;;;;;22.95;12.27;;;6.10;99.90;;;;;;5049396;28;20433;-46
2023/04/08 01:07:30;;;;;;;20.00;11.73;;;6.10;99.90;;;;;;5048864;28;20024;-47
2023/04/08 01:10:14;;;;;;;24.05;13.65;;;6.10;99.90;;;;;;5064134;28;20039;-46
2023/04/08 01:12:45;;;;;;;21.38;12.63;;;6.20;99.90;;;;;;5049002;28;20162;-46
2023/04/08 01:15:11;;;;;;;21.05;11.98;;;6.10;99.90;;;;;;5048894;28;20052;-46
2023/04/08 01:17:39;;;;;;;19.80;11.80;;;6.10;99.90;;;;;;5048912;28;20013;-48
2023/04/08 01:20:06;;;;;;;21.13;12.55;;;6.20;99.90;;;;;;5047290;28;20025;-46
2023/04/08 01:22:52;;;;;;;18.33;11.52;;;6.20;99.90;;;;;;5043651;28;20028;-46
2023/04/08 01:25:22;;;;;;;17.98;11.73;;;6.20;99.90;;;;;;5047729;28;20655;-47
2023/04/08 01:27:49;;;;;;;20.63;12.48;;;6.20;99.90;;;;;;5048672;28;20032;-46
2023/04/08 01:30:19;;;;;;;21.63;12.65;;;6.20;99.90;;;;;;5048859;28;20475;-47
2023/04/08 01:32:45;;;;;;;20.88;12.63;;;6.10;99.90;;;;;;5047519;28;20021;-46
2023/04/08 01:35:14;;;;;;;20.17;11.77;;;6.10;99.90;;;;;;5048702;28;20435;-46
2023/04/08 01:37:41;;;;;;;22.95;12.45;;;6.10;99.90;;;;;;5048458;28;20078;-46
2023/04/08 01:40:09;;;;;;;21.35;11.98;;;6.10;99.90;;;;;;5048624;28;20112;-46
2023/04/08 01:42:35;;;;;;;19.08;12.18;;;6.10;99.90;;;;;;5048645;28;20013;-48
2023/04/08 01:45:03;;;;;;;20.80;11.90;;;6.10;99.90;;;;;;5048339;28;20039;-47
2023/04/08 01:47:30;;;;;;;19.45;11.93;;;6.20;99.90;;;;;;5048162;28;20482;-47
2023/04/08 01:49:57;;;;;;;19.80;12.90;;;6.20;99.90;;;;;;5048018;28;20024;-46
2023/04/08 01:52:25;;;;;;;27.33;14.82;;;6.20;99.90;;;;;;5048541;28;20024;-47
2023/04/08 01:54:51;;;;;;;24.05;14.25;;;6.10;99.90;;;;;;5048785;28;20546;-47
2023/04/08 01:57:23;;;;;;;26.02;13.00;;;6.10;99.90;;;;;;5048246;28;20282;-47
2023/04/08 01:59:52;;;;;;;27.15;13.82;;;6.10;99.90;;;;;;5047908;28;20053;-47
2023/04/08 02:02:20;;;;;;;22.90;14.02;;;6.10;99.90;;;;;;5048716;28;20044;-48
2023/04/08 02:04:46;;;;;;;28.00;14.55;;;6.10;99.90;;;;;;5049236;28;20091;-47
2023/04/08 02:07:11;;;;;;;27.58;13.60;;;6.10;99.90;;;;;;5052467;28;20029;-47
2023/04/08 02:09:37;;;;;;;20.63;12.60;;;6.10;99.90;;;;;;5052319;28;20447;-49
2023/04/08 02:12:02;;;;;;;26.70;14.43;;;6.10;99.90;;;;;;5052697;28;20021;-48
2023/04/08 02:14:28;;;;;;;26.52;15.38;;;6.10;99.90;;;;;;5051570;28;20064;-50
2023/04/08 02:17:00;;;;;;;26.05;15.00;;;6.10;99.90;;;;;;5052064;28;20093;-47
2023/04/08 02:19:34;;;;;;;26.52;15.15;;;6.10;99.90;;;;;;5052256;28;20016;-48
2023/04/08 02:22:12;;;;;;;26.20;14.90;;;6.00;99.90;;;;;;5052222;28;20028;-47
2023/04/08 02:24:39;;;;;;;27.92;16.65;;;6.10;99.90;;;;;;5052138;28;20048;-47
2023/04/08 02:27:07;;;;;;;24.33;15.63;;;6.00;99.90;;;;;;5052034;28;20041;-49
2023/04/08 02:29:34;;;;;;;25.80;14.48;;;6.00;99.90;;;;;;5051468;28;20029;-47
2023/04/08 02:32:02;;;;;;;31.42;16.05;;;6.00;99.90;;;;;;5050607;28;20017;-48
2023/04/08 02:34:29;;;;;;;31.13;16.70;;;6.10;99.90;;;;;;5052302;28;20013;-47
2023/04/08 02:36:55;;;;;;;28.02;15.93;;;6.10;99.90;;;;;;5051994;28;20045;-47
2023/04/08 02:39:20;;;;;;;27.70;16.30;;;6.10;99.90;;;;;;5051782;28;20080;-47
2023/04/08 02:41:46;;;;;;;29.40;16.98;;;6.00;99.90;;;;;;5051414;28;20364;-47
2023/04/08 02:44:11;;;;;;;27.27;16.67;;;6.00;99.90;;;;;;5052271;28;20487;-49
2023/04/08 02:46:37;;;;;;;27.08;15.98;;;6.00;99.90;;;;;;5051698;28;20486;-47
2023/04/08 02:49:02;;;;;;;28.08;16.58;;;6.10;99.90;;;;;;5051073;28;20293;-49
2023/04/08 02:51:28;;;;;;;26.40;15.43;;;6.10;99.90;;;;;;5051778;28;20108;-50
2023/04/08 02:53:54;;;;;;;30.23;16.30;;;6.10;99.90;;;;;;5051368;28;20138;-50
2023/04/08 02:56:20;;;;;;;27.60;16.20;;;6.10;99.90;;;;;;5051446;28;20013;-49
2023/04/08 02:58:46;;;;;;;25.77;14.52;;;6.00;99.90;;;;;;5051372;28;20021;-49
2023/04/08 03:01:11;;;;;;;27.65;15.30;;;6.10;99.90;;;;;;5051689;28;20025;-46
2023/04/08 03:03:37;;;;;;;24.90;15.40;;;6.10;99.90;;;;;;5049954;28;20025;-48
2023/04/08 03:06:02;;;;;;;27.50;15.10;;;6.10;99.90;;;;;;5051854;28;20016;-47
2023/04/08 03:08:28;;;;;;;27.25;15.13;;;6.10;99.90;;;;;;5051217;28;20520;-47
2023/04/08 03:10:53;;;;;;;25.45;15.07;;;6.00;99.90;;;;;;5051462;28;20565;-48
2023/04/08 03:13:19;;;;;;;28.80;15.85;;;6.00;99.90;;;;;;5050164;28;20082;-47
2023/04/08 03:15:45;;;;;;;26.13;15.60;;;6.00;99.90;;;;;;5051246;28;20017;-50
2023/04/08 03:18:10;;;;;;;26.10;15.38;;;6.00;99.90;;;;;;5049585;28;20092;-48
2023/04/08 03:20:36;;;;;;;31.70;15.75;;;6.10;99.90;;;;;;5051508;28;20500;-47
2023/04/08 03:23:01;;;;;;;24.85;14.80;;;6.10;99.90;;;;;;5051247;28;20033;-46
2023/04/08 03:25:28;;;;;;;29.25;15.35;;;6.10;99.90;;;;;;5051118;28;20082;-47
2023/04/08 03:27:54;;;;;;;29.92;15.40;;;6.10;99.90;;;;;;5050561;28;20103;-49
2023/04/08 03:30:19;;;;;;;31.65;15.57;;;6.00;99.90;;;;;;5051282;28;20104;-49
2023/04/08 03:32:45;;;;;;;31.38;16.67;;;5.90;99.90;;;;;;5050452;28;20448;-47
2023/04/08 03:35:10;;;;;;;30.58;17.10;;;5.90;99.90;;;;;;5058278;28;20052;-48
2023/04/08 03:37:36;;;;;;;30.77;16.55;;;5.90;99.90;;;;;;5051173;28;20019;-46
2023/04/08 03:40:02;;;;;;;28.77;15.23;;;6.00;99.90;;;;;;5050684;28;20021;-48
2023/04/08 03:42:28;;;;;;;32.65;17.45;;;5.90;99.90;;;;;;5050548;28;20016;-48
2023/04/08 03:44:53;;;;;;;28.45;16.20;;;5.90;99.90;;;;;;5049446;28;20025;-48
2023/04/08 03:47:19;;;;;;;29.52;17.92;;;5.90;99.90;;;;;;5049232;28;20044;-47
2023/04/08 03:49:44;;;;;;;27.70;16.40;;;5.90;99.90;;;;;;5048803;28;20040;-49
2023/04/08 03:52:10;;;;;;;31.35;17.52;;;5.90;99.90;;;;;;5050591;28;20356;-46
2023/04/08 03:54:35;;;;;;;31.35;18.35;;;5.90;99.90;;;;;;5050458;28;20025;-46
2023/04/08 03:57:01;;;;;;;30.70;17.10;;;5.90;99.90;;;;;;5053419;28;20016;-47
2023/04/08 03:59:26;;;;;;;29.52;16.38;;;5.90;99.90;;;;;;5054285;28;20017;-47
2023/04/08 04:01:52;;;;;;;31.15;16.65;;;5.90;99.90;;;;;;5050714;28;20029;-49
2023/04/08 04:04:18;;;;;;;30.67;16.98;;;5.90;99.90;;;;;;5054520;28;20024;-46
2023/04/08 04:06:44;;;;;;;33.38;17.67;;;6.00;99.90;;;;;;5052644;28;20482;-48
2023/04/08 04:09:10;;;;;;;33.78;16.90;;;6.00;99.90;;;;;;5050624;28;20028;-46
2023/04/08 04:11:36;;;;;;;32.85;17.60;;;6.00;99.90;;;;;;5050217;28;20048;-48
2023/04/08 04:14:01;;;;;;;36.22;18.67;;;5.90;99.90;;;;;;5050272;28;20478;-46
2023/04/08 04:16:27;;;;;;;33.75;17.83;;;5.90;99.90;;;;;;5050102;28;20463;-47
2023/04/08 04:18:52;;;;;;;37.30;19.42;;;5.90;99.90;;;;;;5049675;28;20025;-47
2023/04/08 04:21:18;;;;;;;35.38;17.98;;;5.90;99.90;;;;;;5050304;28;20117;-46
2023/04/08 04:23:44;;;;;;;35.97;19.02;;;5.90;99.90;;;;;;5048303;28;20482;-48
2023/04/08 04:26:10;;;;;;;33.20;17.40;;;5.90;99.90;;;;;;5049491;28;20479;-46
2023/04/08 04:28:36;;;;;;;34.78;18.23;;;5.90;99.90;;;;;;5040098;28;20037;-49
2023/04/08 04:31:02;;;;;;;39.40;19.27;;;5.90;99.90;;;;;;5044733;28;20025;-48
2023/04/08 04:33:27;;;;;;;37.78;19.25;;;5.90;99.90;;;;;;5041349;28;20375;-48
2023/04/08 04:35:53;;;;;;;37.38;20.17;;;5.90;99.90;;;;;;5043290;28;20029;-50
2023/04/08 04:38:18;;;;;;;33.00;17.88;;;5.90;99.90;;;;;;5042434;28;20025;-49
2023/04/08 04:40:44;;;;;;;38.30;19.23;;;5.90;99.90;;;;;;5047690;28;20032;-46
2023/04/08 04:43:10;;;;;;;36.80;19.25;;;5.80;99.90;;;;;;5046462;28;20114;-50
2023/04/08 04:45:35;;;;;;;42.60;19.85;;;5.90;99.90;;;;;;5054490;28;20514;-47
2023/04/08 04:48:02;;;;;;;35.80;18.30;;;5.90;99.90;;;;;;5042727;28;20041;-47
2023/04/08 04:50:28;;;;;;;39.47;18.92;;;5.90;99.90;;;;;;5040005;28;20120;-47
2023/04/08 04:52:53;;;;;;;42.85;19.95;;;5.90;99.90;;;;;;5046970;28;20365;-50
2023/04/08 04:55:19;;;;;;;35.38;18.83;;;5.90;99.90;;;;;;5040445;28;20048;-49
2023/04/08 04:57:44;;;;;;;37.60;19.13;;;5.90;99.90;;;;;;5043569;28;20355;-48
2023/04/08 05:00:11;;;;;;;40.13;18.63;;;5.90;99.90;;;;;;5049463;28;20023;-49
2023/04/08 05:02:36;;;;;;;39.40;20.45;;;5.90;99.90;;;;;;5049628;28;20429;-48
2023/04/08 05:05:02;;;;;;;38.88;19.55;;;6.00;99.90;;;;;;5047936;28;20029;-48
2023/04/08 05:07:27;;;;;;;37.20;19.80;;;6.00;99.90;;;;;;5069705;28;20036;-47
2023/04/08 05:09:53;;;;;;;37.90;19.85;;;6.00;99.90;;;;;;5055279;28;20025;-48
2023/04/08 05:12:21;;;;;;;36.35;19.00;;;6.00;99.90;;;;;;5045131;28;20276;-48
2023/04/08 05:14:47;;;;;;;38.10;19.15;;;6.00;99.90;;;;;;5041610;28;20502;-49
2023/04/08 05:17:12;;;;;;;44.75;21.65;;;6.00;99.90;;;;;;5042167;28;20024;-47
2023/04/08 05:19:38;;;;;;;39.42;18.35;;;6.00;99.90;;;;;;5038774;28;20036;-48
2023/04/08 05:22:03;;;;;;;39.47;20.83;;;6.00;99.90;;;;;;5047887;28;20028;-48
2023/04/08 05:24:29;;;;;;;44.58;18.98;;;6.00;99.90;;;;;;5042993;28;20071;-49
2023/04/08 05:26:56;;;;;;;35.95;18.90;;;6.00;99.90;;;;;;5048711;28;20029;-48
2023/04/08 05:29:22;;;;;;;39.10;20.08;;;6.00;99.90;;;;;;5048277;28;20017;-49
2023/04/08 05:31:48;;;;;;;39.80;20.20;;;6.00;99.90;;;;;;5049077;28;20052;-49
2023/04/08 05:34:14;;;;;;;38.95;18.85;;;6.00;99.90;;;;;;5048218;28;20025;-48
2023/04/08 05:36:40;;;;;;;38.95;20.77;;;6.00;99.90;;;;;;5049088;28;20032;-48
2023/04/08 05:39:05;;;;;;;38.58;19.55;;;6.00;99.90;;;;;;5042277;28;20487;-48
2023/04/08 05:41:31;;;;;;;45.53;21.33;;;6.00;99.90;;;;;;5046638;28;20284;-49
2023/04/08 05:43:56;;;;;;;41.70;19.50;;;6.00;99.90;;;;;;5044293;28;20029;-47
2023/04/08 05:46:22;;;;;;;38.05;21.23;;;6.00;99.90;;;;;;5043703;28;20178;-48
2023/04/08 05:48:47;;;;;;;37.22;19.50;;;6.00;99.90;;;;;;5039650;28;20032;-48
2023/04/08 05:51:13;;;;;;;39.10;21.13;;;6.10;99.90;;;;;;5042449;28;20426;-48
2023/04/08 05:53:39;;;;;;;40.30;20.70;;;6.20;99.90;;;;;;5041632;28;20021;-49
2023/04/08 05:56:05;;;;;;;37.13;19.27;;;6.20;99.90;;;;;;5047240;28;20024;-50
2023/04/08 05:58:30;;;;;;;38.45;21.05;;;6.20;99.90;;;;;;5039450;28;20079;-47
2023/04/08 06:00:56;;;;;;;37.75;19.85;;;6.20;99.90;;;;;;5042289;28;20033;-47
2023/04/08 06:03:21;;;;;;;50.17;20.80;;;6.10;99.90;;;;;;5040372;28;20021;-47
2023/04/08 06:05:47;;;;;;;47.22;21.40;;;6.10;99.90;;;;;;5040053;28;20034;-47
2023/04/08 06:08:12;;;;;;;41.45;20.92;;;6.10;99.90;;;;;;5042926;28;20540;-47
2023/04/08 06:10:38;;;;;;;34.28;19.55;;;6.00;99.90;;;;;;5042109;28;20524;-48
2023/04/08 06:13:04;;;;;;;38.97;19.60;;;6.10;99.90;;;;;;5046046;28;20379;-48
2023/04/08 06:15:29;;;;;;;40.20;20.00;;;6.10;99.90;;;;;;5047050;28;20017;-47
2023/04/08 06:17:55;;;;;;;37.78;19.95;;;6.20;99.90;;;;;;5047857;28;20521;-49
2023/04/08 06:20:20;;;;;;;39.55;20.77;;;6.10;99.90;;;;;;5047931;28;20298;-47
2023/04/08 06:22:46;;;;;;;39.00;19.38;;;6.10;99.90;;;;;;5048077;28;20021;-49
2023/04/08 06:25:12;;;;;;;39.17;20.50;;;6.20;99.90;;;;;;5046760;28;20025;-47
2023/04/08 06:27:37;;;;;;;40.03;19.50;;;6.20;99.90;;;;;;5047946;28;20475;-50
2023/04/08 06:30:03;;;;;;;39.25;19.80;;;6.20;99.90;;;;;;5047523;28;20407;-49
2023/04/08 06:32:29;;;;;;;38.58;21.00;;;6.20;99.90;;;;;;5048299;28;20025;-48
2023/04/08 06:34:55;;;;;;;41.00;20.73;;;6.30;99.90;;;;;;5047750;28;20017;-49
2023/04/08 06:37:20;;;;;;;35.30;19.48;;;6.30;99.90;;;;;;5046199;28;20367;-50
2023/04/08 06:39:46;;;;;;;40.88;20.15;;;6.30;99.90;;;;;;5046331;28;20375;-48
2023/04/08 06:42:11;;;;;;;36.33;18.90;;;6.30;99.90;;;;;;5046031;28;20390;-47
2023/04/08 06:44:37;;;;;;;38.72;19.20;;;6.30;99.90;;;;;;5046272;28;20351;-47
2023/04/08 06:47:02;;;;;;;40.28;22.25;;;6.30;99.90;;;;;;5046465;28;20110;-47
2023/04/08 06:49:29;;;;;;;41.33;20.58;;;6.40;99.90;;;;;;5044692;28;20390;-47
2023/04/08 06:51:54;;;;;;;40.30;20.73;;;6.40;99.90;;;;;;5050052;28;20083;-48
2023/04/08 06:54:20;;;;;;;41.85;20.60;;;6.40;99.90;;;;;;5052023;28;20013;-46
2023/04/08 06:56:45;;;;;;;35.10;18.95;;;6.50;99.90;;;;;;5052013;28;20427;-46
2023/04/08 06:59:11;;;;;;;34.42;20.25;;;6.50;99.90;;;;;;5049471;28;20124;-46
2023/04/08 07:01:36;;;;;;;38.20;20.23;;;6.50;99.90;;;;;;5050726;28;20075;-46
2023/04/08 07:04:02;;;;;;;36.72;20.02;;;6.40;99.90;;;;;;5053303;28;20037;-46
2023/04/08 07:06:27;;;;;;;38.05;19.23;;;6.50;99.90;;;;;;5057327;28;20086;-46
2023/04/08 07:08:53;;;;;;;41.67;20.10;;;6.50;99.90;;;;;;5049468;28;20547;-48
2023/04/08 07:11:18;;;;;;;34.67;18.58;;;6.60;99.90;;;;;;5050286;28;20066;-46
2023/04/08 07:13:44;;;;;;;37.45;19.38;;;6.60;99.90;;;;;;5050601;28;20027;-46
2023/04/08 07:16:09;;;;;;;39.00;21.70;;;6.60;99.90;;;;;;5050961;28;20017;-47
2023/04/08 07:18:35;;;;;;;38.08;19.48;;;6.60;99.90;;;;;;5046254;28;20017;-47
2023/04/08 07:21:01;;;;;;;40.50;19.48;;;6.60;99.90;;;;;;5064458;28;20405;-47
2023/04/08 07:23:26;;;;;;;40.95;19.80;;;6.70;99.90;;;;;;5050868;28;20513;-50
2023/04/08 07:25:52;;;;;;;36.03;20.80;;;6.80;99.90;;;;;;5051110;28;20032;-47
2023/04/08 07:28:19;;;;;;;33.10;19.17;;;6.70;99.90;;;;;;5050439;28;20021;-46
2023/04/08 07:30:44;;;;;;;40.28;20.05;;;6.70;99.90;;;;;;5050603;28;20024;-45
2023/04/08 07:33:10;;;;;;;40.60;18.77;;;6.70;99.90;;;;;;5050576;28;20021;-47
2023/04/08 07:35:35;;;;;;;41.88;19.75;;;6.80;99.90;;;;;;5050874;28;20021;-46
2023/04/08 07:38:01;;;;;;;36.85;20.40;;;6.80;99.90;;;;;;5050521;28;20032;-47
2023/04/08 07:40:26;;;;;;;38.53;19.20;;;6.80;99.90;;;;;;5049885;28;20017;-47
2023/04/08 07:42:52;;;;;;;37.22;19.88;;;6.90;99.90;;;;;;5050618;28;20245;-49
2023/04/08 07:45:17;;;;;;;40.60;20.08;;;6.90;99.90;;;;;;5050251;28;20477;-46
2023/04/08 07:47:43;;;;;;;36.03;19.33;;;6.90;99.90;;;;;;5050327;28;20395;-47
2023/04/08 07:50:09;;;;;;;38.78;20.38;;;6.90;99.90;;;;;;5047915;28;20044;-47
2023/04/08 07:52:35;;;;;;;44.55;21.15;;;7.00;99.90;;;;;;5050458;28;20028;-47
2023/04/08 07:55:00;;;;;;;35.55;18.88;;;7.00;99.90;;;;;;5049870;28;20028;-47
2023/04/08 07:57:26;;;;;;;42.90;20.67;;;7.00;99.90;;;;;;5042605;28;20024;-48
2023/04/08 07:59:51;;;;;;;42.42;20.05;;;7.00;99.90;;;;;;5049802;28;20402;-49
2023/04/08 08:02:17;;;;;;;38.53;18.90;;;7.00;99.90;;;;;;5049949;28;20104;-47
2023/04/08 08:04:43;;;;;;;35.25;19.13;;;7.00;99.90;;;;;;5050120;28;20049;-48
2023/04/08 08:07:08;;;;;;;45.97;22.02;;;7.00;99.90;;;;;;5050040;28;20040;-47
2023/04/08 08:09:34;;;;;;;41.60;21.15;;;7.00;99.90;;;;;;5049848;28;20723;-47
2023/04/08 08:11:59;;;;;;;51.25;21.92;;;7.10;99.90;;;;;;5048992;28;20066;-46
2023/04/08 08:14:25;;;;;;;41.72;20.98;;;7.00;99.90;;;;;;5050333;28;20179;-50
2023/04/08 08:16:52;;;;;;;42.38;20.35;;;7.00;99.90;;;;;;5050311;28;20431;-47
2023/04/08 08:19:21;;;;;;;38.33;20.10;;;7.00;99.90;;;;;;5049655;28;20159;-47
2023/04/08 08:21:46;;;;;;;40.13;20.45;;;7.00;99.90;;;;;;5065249;28;20100;-48
2023/04/08 08:24:12;;;;;;;43.20;20.67;;;7.10;99.90;;;;;;5050150;28;20471;-48
2023/04/08 08:26:37;;;;;;;40.80;21.95;;;7.10;99.90;;;;;;5049794;28;20398;-47
2023/04/08 08:29:05;;;;;;;48.33;22.33;;;7.10;99.90;;;;;;5048020;28;20055;-48
2023/04/08 08:31:30;;;;;;;34.25;18.50;;;7.10;99.90;;;;;;5048701;28;20024;-50
2023/04/08 08:33:56;;;;;;;42.05;21.45;;;7.20;99.90;;;;;;5049719;28;20317;-50
2023/04/08 08:36:22;;;;;;;38.65;20.10;;;7.10;99.90;;;;;;5042243;28;20017;-48
2023/04/08 08:38:47;;;;;;;43.38;19.80;;;7.00;99.90;;;;;;5043223;28;20033;-49
2023/04/08 08:41:14;;;;;;;44.20;21.98;;;7.10;99.90;;;;;;5042861;28;20025;-47
2023/04/08 08:43:39;;;;;;;52.90;23.90;;;7.00;99.90;;;;;;5048558;28;20024;-48
2023/04/08 08:46:10;;;;;;;43.00;21.10;;;7.00;99.90;;;;;;5046789;28;20091;-48
2023/04/08 08:48:37;;;;;;;43.40;21.10;;;7.00;99.90;;;;;;5048222;28;20029;-49
2023/04/08 08:51:08;;;;;;;41.08;20.95;;;7.00;99.90;;;;;;5045357;28;20604;-47
2023/04/08 08:53:33;;;;;;;41.70;20.02;;;7.10;99.90;;;;;;5041086;28;20032;-49
2023/04/08 08:55:59;;;;;;;51.75;22.77;;;7.20;99.90;;;;;;5039576;28;20021;-47
2023/04/08 08:58:26;;;;;;;44.40;22.30;;;7.10;99.90;;;;;;5047536;28;20498;-46
2023/04/08 09:00:52;;;;;;;47.00;22.67;;;7.10;99.90;;;;;;5048328;28;20112;-46
2023/04/08 09:03:18;;;;;;;41.97;20.58;;;7.10;99.90;;;;;;5039359;28;20147;-47
2023/04/08 09:05:51;;;;;;;44.97;21.38;;;7.00;99.90;;;;;;5048282;28;20024;-47
2023/04/08 09:08:30;;;;;;;44.58;22.63;;;7.10;99.90;;;;;;5047031;28;20108;-50
2023/04/08 09:11:12;;;;;;;37.67;19.73;;;7.10;99.90;;;;;;5047921;28;20032;-47
2023/04/08 09:13:38;;;;;;;43.17;21.20;;;7.10;99.90;;;;;;5046614;28;20063;-48
2023/04/08 09:16:08;;;;;;;46.08;21.50;;;7.00;99.90;;;;;;5046618;28;20025;-50
2023/04/08 09:18:34;;;;;;;45.33;21.58;;;7.10;99.90;;;;;;5047968;28;20532;-47
2023/04/08 09:21:01;;;;;;;44.40;21.60;;;7.00;99.90;;;;;;5047843;28;20104;-48
2023/04/08 09:23:41;;;;;;;46.63;21.40;;;7.00;99.90;;;;;;5041675;28;20021;-47
2023/04/08 09:26:18;;;;;;;45.92;21.65;;;7.00;99.90;;;;;;5043409;28;20112;-49
2023/04/08 09:28:57;;;;;;;44.10;22.60;;;6.90;99.90;;;;;;5039488;28;20029;-47
2023/04/08 09:31:26;;;;;;;40.65;21.52;;;7.00;99.90;;;;;;5042008;28;20024;-47
2023/04/08 09:34:08;;;;;;;49.90;22.08;;;7.00;99.90;;;;;;5071349;28;20044;-48
2023/04/08 09:36:33;;;;;;;46.53;22.25;;;7.00;99.90;;;;;;5069430;28;20078;-46
2023/04/08 09:38:59;;;;;;;48.83;23.15;;;7.00;99.90;;;;;;5047369;28;20041;-47
2023/04/08 09:41:27;;;;;;;42.13;20.50;;;7.00;99.90;;;;;;5047555;28;20017;-47
2023/04/08 09:43:54;;;;;;;48.63;23.73;;;6.90;99.90;;;;;;5046911;28;20029;-51
2023/04/08 09:46:35;;;;;;;42.35;21.35;;;7.00;99.90;;;;;;5062187;28;20028;-47
2023/04/08 09:49:12;;;;;;;48.38;22.60;;;7.10;99.90;;;;;;5047078;28;20029;-47
2023/04/08 09:52:03;;;;;;;53.90;25.48;;;7.10;99.90;;;;;;5047633;28;20028;-48
2023/04/08 09:54:54;;;;;;;50.83;24.80;;;7.00;99.90;;;;;;5047257;28;20020;-48
2023/04/08 09:57:42;;;;;;;48.30;22.83;;;7.00;99.90;;;;;;5060699;28;20078;-47
2023/04/08 10:00:16;;;;;;;44.80;22.40;;;7.00;99.90;;;;;;5047371;28;20530;-47
2023/04/08 10:03:05;;;;;;;43.72;21.98;;;7.10;99.90;;;;;;5047666;28;20029;-47
2023/04/08 10:05:35;;;;;;;50.03;23.00;;;7.00;99.90;;;;;;5047817;28;20032;-47
2023/04/08 10:08:00;;;;;;;48.85;22.42;;;7.00;99.90;;;;;;5047290;28;20438;-46
2023/04/08 10:10:26;;;;;;;50.70;22.70;;;7.00;99.90;;;;;;5047119;28;20024;-47
2023/04/08 10:12:52;;;;;;;43.25;20.63;;;7.00;99.90;;;;;;5047327;28;20017;-46
2023/04/08 10:15:26;;;;;;;43.80;21.08;;;7.10;99.90;;;;;;5046893;28;20071;-47
2023/04/08 10:17:53;;;;;;;43.25;20.80;;;7.10;99.90;;;;;;5043026;28;20486;-46
2023/04/08 10:20:33;;;;;;;45.53;21.15;;;7.10;99.90;;;;;;5046491;28;20035;-48
2023/04/08 10:23:00;;;;;;;44.00;20.13;;;7.10;99.90;;;;;;5045644;28;20036;-47
2023/04/08 10:25:36;;;;;;;48.25;21.88;;;7.20;99.90;;;;;;5046649;28;20029;-48
2023/04/08 10:28:22;;;;;;;44.35;21.73;;;7.20;99.90;;;;;;5050503;28;20040;-48
2023/04/08 10:30:48;;;;;;;43.10;21.17;;;7.20;99.90;;;;;;5051238;28;20040;-47
2023/04/08 10:33:35;;;;;;;38.08;19.55;;;7.20;99.90;;;;;;5051083;28;20021;-51
2023/04/08 10:36:10;;;;;;;37.60;18.48;;;7.20;99.90;;;;;;5051314;28;20017;-49
2023/04/08 10:38:36;;;;;;;44.30;20.67;;;7.20;99.90;;;;;;5049198;28;20025;-49
2023/04/08 10:41:03;;;;;;;45.97;20.83;;;7.20;99.90;;;;;;5050661;28;20221;-47
2023/04/08 10:43:32;;;;;;;41.05;20.73;;;7.30;99.90;;;;;;5050631;28;20013;-50
2023/04/08 10:45:58;;;;;;;41.33;20.83;;;7.30;99.90;;;;;;5047459;28;20032;-47
2023/04/08 10:48:24;;;;;;;38.60;20.17;;;7.20;99.90;;;;;;5045136;28;20279;-48
2023/04/08 10:51:02;;;;;;;43.13;20.83;;;7.20;99.90;;;;;;5050814;28;20029;-47
2023/04/08 10:53:37;;;;;;;47.95;20.73;;;7.20;99.90;;;;;;5045338;28;20009;-47
2023/04/08 10:56:12;;;;;;;42.38;21.77;;;7.20;99.90;;;;;;5048064;28;20436;-48
2023/04/08 10:58:48;;;;;;;46.90;20.67;;;7.30;99.90;;;;;;5050151;28;20013;-47
2023/04/08 11:01:14;;;;;;;39.92;19.85;;;7.30;99.90;;;;;;5049986;28;20036;-47
2023/04/08 11:03:41;;;;;;;38.22;20.95;;;7.30;99.90;;;;;;5050620;28;20021;-47
2023/04/08 11:06:07;;;;;;;39.13;20.30;;;7.40;99.90;;;;;;5052151;28;20020;-47
2023/04/08 11:08:34;;;;;;;42.67;21.95;;;7.40;99.90;;;;;;5055685;28;20026;-47
2023/04/08 11:11:04;;;;;;;43.65;22.02;;;7.40;99.90;;;;;;5049745;28;20029;-47
2023/04/08 11:13:30;;;;;;;39.10;19.90;;;7.40;99.90;;;;;;5048726;28;20368;-48
2023/04/08 11:15:58;;;;;;;46.13;21.70;;;7.50;99.90;;;;;;5050056;28;20021;-47
2023/04/08 11:18:24;;;;;;;42.33;19.08;;;7.60;99.90;;;;;;5066169;28;20120;-49
2023/04/08 11:20:51;;;;;;;41.33;20.75;;;7.60;99.90;;;;;;5051308;28;20032;-46
2023/04/08 11:23:17;;;;;;;40.25;20.67;;;7.70;99.90;;;;;;5050051;28;20017;-47
2023/04/08 11:25:45;;;;;;;39.00;19.67;;;7.70;99.90;;;;;;5050988;28;20024;-46
2023/04/08 11:28:12;;;;;;;42.33;20.38;;;7.80;99.90;;;;;;5050747;28;20040;-47
2023/04/08 11:30:39;;;;;;;34.65;19.20;;;7.90;99.90;;;;;;5051376;28;20053;-47
2023/04/08 11:33:05;;;;;;;43.78;21.15;;;7.90;99.90;;;;;;5049822;28;20462;-48
2023/04/08 11:35:31;;;;;;;36.45;18.98;;;8.00;99.90;;;;;;5051386;28;20025;-48
2023/04/08 11:37:57;;;;;;;37.03;19.98;;;8.00;99.90;;;;;;5049730;28;20372;-47
2023/04/08 11:40:23;;;;;;;33.45;18.60;;;8.20;99.90;;;;;;5049422;28;20509;-50
2023/04/08 11:42:50;;;;;;;36.30;18.92;;;8.20;99.90;;;;;;5050959;28;20017;-50
2023/04/08 11:45:17;;;;;;;36.15;19.80;;;8.30;99.90;;;;;;5049998;28;20035;-46
2023/04/08 11:47:43;;;;;;;36.33;18.33;;;8.30;99.90;;;;;;5046047;28;20462;-50
2023/04/08 11:50:09;;;;;;;35.88;18.05;;;8.20;99.90;;;;;;5043273;28;20030;-47
2023/04/08 11:52:45;;;;;;;36.65;19.25;;;8.20;99.90;;;;;;5043416;28;20071;-47
2023/04/08 11:55:20;;;;;;;35.47;19.48;;;8.20;99.90;;;;;;5043529;28;20026;-47
2023/04/08 11:57:47;;;;;;;34.08;16.90;;;8.20;99.90;;;;;;5045625;28;20305;-47
2023/04/08 12:00:12;;;;;;;41.15;19.98;;;8.30;99.90;;;;;;5050047;28;20025;-47
2023/04/08 12:02:39;;;;;;;30.77;16.70;;;8.30;99.90;;;;;;5050495;28;20048;-49
2023/04/08 12:05:05;;;;;;;32.20;17.10;;;8.30;99.90;;;;;;5050727;28;20104;-46
2023/04/08 12:07:31;;;;;;;29.50;16.45;;;8.40;99.90;;;;;;5050235;28;20021;-47
2023/04/08 12:09:57;;;;;;;27.85;15.27;;;8.50;99.90;;;;;;5050282;28;20017;-47
2023/04/08 12:12:22;;;;;;;31.10;16.92;;;8.50;99.90;;;;;;5048912;28;20445;-47
2023/04/08 12:14:48;;;;;;;30.33;15.75;;;8.60;99.90;;;;;;5050336;28;20021;-47
2023/04/08 12:17:14;;;;;;;29.95;16.15;;;8.70;99.90;;;;;;5048469;28;20364;-46
2023/04/08 12:19:40;;;;;;;30.27;17.98;;;8.80;99.90;;;;;;5049218;28;20029;-47
2023/04/08 12:22:05;;;;;;;32.70;16.85;;;8.80;99.90;;;;;;5042005;28;20033;-47
2023/04/08 12:24:31;;;;;;;26.20;15.68;;;8.80;99.90;;;;;;5043091;28;20021;-47
2023/04/08 12:26:57;;;;;;;34.85;16.70;;;8.80;99.90;;;;;;5049741;28;20029;-49
2023/04/08 12:29:22;;;;;;;32.95;17.08;;;8.90;99.90;;;;;;5046208;28;20029;-48
2023/04/08 12:31:48;;;;;;;29.10;15.68;;;9.00;99.90;;;;;;5041285;28;20148;-47
2023/04/08 12:34:13;;;;;;;28.65;15.52;;;9.00;99.90;;;;;;5044449;28;20037;-48
2023/04/08 12:36:40;;;;;;;27.35;14.90;;;9.20;99.90;;;;;;5041836;28;20022;-47